Terminal Aerodrome Forecast
Issued by NWS Cleveland, OH

Home | Current Version | Previous Version | Graphics & Text | Print | Product List | Glossary On
Versions: 1 2 3 4 5 6 7 8 9 10 11 12 13 14 15 16
976
FTUS41 KCLE 192339
TAFTOL
TAF
KTOL 192339Z 2000/2024 28013KT P6SM BKN045
     FM200200 27012KT P6SM SCT050
     FM201200 22012KT P6SM FEW250=

USA.gov is the U.S. government's official web portal to all federal, state and local government web resources and services.